Time;durP1;ratioP1;P1;durP2;ratioP2;P2;SDS_P1;SDS_P2;PMS_P1;PMS_P2;Temp;Humidity;BMP_temperature;BMP_pressure;BME280_temperature;BME280_humidity;BME280_pressure;Samples;Min_cycle;Max_cycle;Signal;HPM_P1;HPM_P2
2021/08/03 00:01:01;;;;;;;1.70;1.60;;;16.80;99.90;;;;;;5034201;28;20831;-58
2021/08/03 00:03:36;;;;;;;1.70;1.60;;;16.90;99.90;;;;;;5032747;28;20938;-57
2021/08/03 00:06:29;;;;;;;5.77;2.20;;;16.90;99.90;;;;;;5033834;28;20429;-58
2021/08/03 00:08:59;;;;;;;1.90;1.80;;;16.80;99.90;;;;;;5032250;28;20453;-58
2021/08/03 00:11:26;;;;;;;2.00;1.87;;;16.80;99.90;;;;;;5033900;28;20498;-58
2021/08/03 00:13:53;;;;;;;1.90;1.80;;;16.90;99.90;;;;;;5033511;28;20408;-57
2021/08/03 00:16:19;;;;;;;2.67;2.03;;;16.90;99.90;;;;;;5033882;28;20423;-56
2021/08/03 00:18:45;;;;;;;3.30;1.90;;;17.00;99.90;;;;;;5016787;28;20553;-56
2021/08/03 00:21:11;;;;;;;2.10;1.73;;;17.00;99.90;;;;;;5014361;28;20482;-57
2021/08/03 00:23:45;;;;;;;4.73;2.00;;;17.00;99.90;;;;;;5014233;28;20414;-58
2021/08/03 00:26:12;;;;;;;2.70;1.83;;;17.00;99.90;;;;;;5016437;28;20955;-49
2021/08/03 00:28:39;;;;;;;1.83;1.70;;;16.90;99.90;;;;;;5023186;28;20796;-53
2021/08/03 00:31:05;;;;;;;2.00;1.80;;;17.00;99.90;;;;;;5033449;28;20470;-53
2021/08/03 00:33:31;;;;;;;5.07;2.13;;;17.00;99.90;;;;;;5033967;28;20407;-51
2021/08/03 00:35:57;;;;;;;4.70;2.20;;;17.00;99.90;;;;;;5033576;28;20903;-57
2021/08/03 00:38:23;;;;;;;2.00;1.80;;;17.00;99.90;;;;;;5033810;28;20545;-57
2021/08/03 00:40:58;;;;;;;2.93;1.90;;;17.10;99.90;;;;;;5033843;28;20179;-57
2021/08/03 00:43:23;;;;;;;2.80;2.27;;;17.20;99.90;;;;;;5033172;28;20150;-57
2021/08/03 00:45:49;;;;;;;3.93;2.00;;;17.20;99.90;;;;;;5033543;28;20433;-57
2021/08/03 00:48:15;;;;;;;2.10;1.90;;;17.10;99.90;;;;;;5033786;28;20173;-56
2021/08/03 00:50:41;;;;;;;2.20;2.00;;;17.10;99.90;;;;;;5034075;28;20617;-56
2021/08/03 00:53:07;;;;;;;2.20;1.50;;;17.20;99.90;;;;;;5033771;28;20168;-56
2021/08/03 00:55:34;;;;;;;2.20;2.00;;;17.20;99.90;;;;;;5033671;28;20519;-55
2021/08/03 00:58:00;;;;;;;2.97;1.93;;;17.30;99.90;;;;;;5031831;28;20198;-54
2021/08/03 01:00:26;;;;;;;1.73;1.63;;;17.30;99.90;;;;;;5033477;28;20493;-57
2021/08/03 01:02:52;;;;;;;2.17;1.83;;;17.30;99.90;;;;;;5033798;28;20434;-57
2021/08/03 01:05:19;;;;;;;3.37;1.80;;;17.40;99.90;;;;;;5033337;28;20249;-57
2021/08/03 01:07:54;;;;;;;1.90;1.60;;;17.40;99.90;;;;;;5033045;28;20171;-56
2021/08/03 01:10:45;;;;;;;3.40;2.13;;;17.40;99.90;;;;;;5033087;28;20759;-58
2021/08/03 01:13:26;;;;;;;2.50;2.30;;;17.40;99.90;;;;;;5033430;28;20404;-56
2021/08/03 01:15:59;;;;;;;2.33;1.87;;;17.30;99.90;;;;;;5032825;28;20491;-58
2021/08/03 01:18:56;;;;;;;1.97;1.67;;;17.20;99.90;;;;;;5033364;28;20492;-58
2021/08/03 01:21:46;;;;;;;2.10;1.93;;;17.30;99.90;;;;;;4979562;28;20423;-57
2021/08/03 01:24:15;;;;;;;2.20;1.87;;;17.30;99.90;;;;;;5032886;28;20509;-57
2021/08/03 01:27:19;;;;;;;4.90;2.17;;;17.20;99.90;;;;;;5031817;28;20436;-58
2021/08/03 01:29:46;;;;;;;2.23;2.00;;;17.20;99.90;;;;;;5004055;28;20466;-57
2021/08/03 01:32:19;;;;;;;3.27;1.80;;;17.20;99.90;;;;;;5032943;28;20865;-58
2021/08/03 01:34:47;;;;;;;1.93;1.50;;;17.10;99.90;;;;;;5034612;28;20424;-56
2021/08/03 01:37:22;;;;;;;4.57;2.20;;;17.20;99.90;;;;;;5036491;28;20462;-58
2021/08/03 01:39:55;;;;;;;3.83;1.83;;;17.10;99.90;;;;;;4997548;28;20425;-57
2021/08/03 01:42:22;;;;;;;1.87;1.63;;;17.00;99.90;;;;;;4996730;28;20393;-57
2021/08/03 01:44:49;;;;;;;1.60;1.50;;;17.00;99.90;;;;;;4997205;28;20430;-58
2021/08/03 01:47:18;;;;;;;3.47;1.87;;;17.00;99.90;;;;;;4997089;28;20458;-57
2021/08/03 01:49:45;;;;;;;4.03;1.70;;;17.00;99.90;;;;;;4997404;28;20431;-58
2021/08/03 01:52:12;;;;;;;2.57;1.60;;;17.00;99.90;;;;;;4997101;28;20801;-56
2021/08/03 01:54:39;;;;;;;1.53;1.40;;;17.00;99.90;;;;;;4997177;28;20465;-57
2021/08/03 01:57:07;;;;;;;1.97;1.83;;;17.00;99.90;;;;;;4996315;28;20447;-57
2021/08/03 01:59:33;;;;;;;4.13;1.70;;;16.90;99.90;;;;;;4997413;28;20439;-58
2021/08/03 02:02:00;;;;;;;2.70;1.67;;;16.90;99.90;;;;;;4997119;28;20458;-58
2021/08/03 02:04:28;;;;;;;2.07;1.73;;;16.80;99.90;;;;;;4996657;28;20454;-56
2021/08/03 02:06:54;;;;;;;6.67;1.77;;;16.80;99.90;;;;;;4996755;28;20932;-57
2021/08/03 02:09:22;;;;;;;1.63;1.50;;;16.90;99.90;;;;;;5029831;28;20425;-57
2021/08/03 02:11:49;;;;;;;2.17;1.90;;;16.70;99.90;;;;;;5035869;28;20413;-58
2021/08/03 02:14:16;;;;;;;4.50;2.00;;;16.70;99.90;;;;;;5035965;28;20953;-58
2021/08/03 02:16:43;;;;;;;2.80;1.90;;;16.90;99.90;;;;;;5036000;28;20409;-58
2021/08/03 02:19:09;;;;;;;2.90;1.90;;;16.90;99.90;;;;;;5036237;28;20418;-57
2021/08/03 02:21:35;;;;;;;1.90;1.70;;;16.90;99.90;;;;;;5025730;28;20415;-58
2021/08/03 02:24:00;;;;;;;2.63;1.60;;;17.00;99.90;;;;;;5015863;28;20171;-56
2021/08/03 02:26:26;;;;;;;2.53;1.47;;;17.00;99.90;;;;;;5016408;28;20430;-57
2021/08/03 02:28:51;;;;;;;2.93;1.53;;;17.00;99.90;;;;;;5015567;28;20176;-57
2021/08/03 02:31:37;;;;;;;2.27;2.07;;;17.10;99.90;;;;;;5016345;28;20203;-57
2021/08/03 02:34:16;;;;;;;1.70;1.60;;;17.00;99.90;;;;;;5016037;28;20173;-57
2021/08/03 02:36:49;;;;;;;2.60;2.10;;;17.00;99.90;;;;;;5015797;28;20495;-58
2021/08/03 02:39:17;;;;;;;2.87;1.83;;;17.00;99.90;;;;;;5032048;28;20409;-57
2021/08/03 02:41:45;;;;;;;2.00;1.83;;;17.10;99.90;;;;;;5034970;28;20957;-57
2021/08/03 02:44:13;;;;;;;2.10;1.90;;;17.00;99.90;;;;;;5035620;28;20419;-57
2021/08/03 02:46:41;;;;;;;2.03;1.70;;;17.00;99.90;;;;;;5034541;28;20408;-57
2021/08/03 02:49:12;;;;;;;4.73;1.73;;;17.10;99.90;;;;;;5035700;28;20439;-58
2021/08/03 02:51:39;;;;;;;2.00;1.80;;;17.20;99.90;;;;;;5035577;28;20400;-58
2021/08/03 02:54:27;;;;;;;2.17;1.67;;;17.20;99.90;;;;;;5035380;28;20428;-58
2021/08/03 02:56:55;;;;;;;3.20;2.10;;;17.20;99.90;;;;;;5034893;28;20463;-57
2021/08/03 02:59:23;;;;;;;2.17;1.83;;;17.20;99.90;;;;;;5035043;28;20489;-58
2021/08/03 03:01:50;;;;;;;1.87;1.77;;;17.20;99.90;;;;;;5035222;28;20414;-58
2021/08/03 03:04:23;;;;;;;2.57;2.30;;;17.20;99.90;;;;;;5035188;28;20517;-57
2021/08/03 03:06:54;;;;;;;3.23;2.10;;;17.20;99.90;;;;;;5035340;28;20402;-56
2021/08/03 03:09:22;;;;;;;1.90;1.80;;;17.20;99.90;;;;;;5035014;28;20444;-57
2021/08/03 03:11:51;;;;;;;2.43;2.03;;;17.10;99.90;;;;;;5017368;28;20434;-58
2021/08/03 03:14:18;;;;;;;1.60;1.50;;;17.10;99.90;;;;;;5015804;28;20440;-56
2021/08/03 03:16:45;;;;;;;2.50;2.00;;;17.00;99.90;;;;;;5015048;28;20407;-57
2021/08/03 03:19:15;;;;;;;2.10;1.90;;;16.90;99.90;;;;;;5014937;28;20403;-56
2021/08/03 03:21:43;;;;;;;2.93;1.60;;;16.90;99.90;;;;;;5015163;28;20504;-57
2021/08/03 03:24:09;;;;;;;2.80;2.10;;;16.90;99.90;;;;;;5015207;28;20490;-58
2021/08/03 03:26:36;;;;;;;2.37;2.03;;;16.80;99.90;;;;;;5018107;28;20879;-58
2021/08/03 03:29:10;;;;;;;2.77;2.00;;;16.80;99.90;;;;;;5035002;28;20416;-55
2021/08/03 03:31:36;;;;;;;2.70;1.80;;;16.70;99.90;;;;;;5035003;28;20859;-58
2021/08/03 03:34:07;;;;;;;3.20;1.90;;;16.70;99.90;;;;;;5034711;28;20410;-58
2021/08/03 03:36:34;;;;;;;1.80;1.70;;;16.50;99.90;;;;;;5034539;28;20411;-56
2021/08/03 03:39:02;;;;;;;3.13;2.03;;;16.40;99.90;;;;;;5034335;28;20412;-57
2021/08/03 03:41:29;;;;;;;2.17;2.00;;;16.40;99.90;;;;;;5033922;28;20957;-57
2021/08/03 03:43:55;;;;;;;2.10;1.90;;;16.30;99.90;;;;;;5032885;28;20445;-57
2021/08/03 03:46:27;;;;;;;3.67;2.10;;;16.20;99.90;;;;;;5034363;28;20411;-57
2021/08/03 03:48:59;;;;;;;2.40;1.83;;;16.00;99.90;;;;;;5034545;28;20784;-56
2021/08/03 03:51:28;;;;;;;2.57;2.00;;;16.00;99.90;;;;;;5034540;28;20466;-56
2021/08/03 03:53:58;;;;;;;1.90;1.60;;;16.00;99.90;;;;;;5034295;28;20475;-58
2021/08/03 03:56:40;;;;;;;2.27;2.07;;;16.00;99.90;;;;;;5034032;28;20411;-57
2021/08/03 03:59:06;;;;;;;2.27;1.57;;;16.10;99.90;;;;;;5033808;28;20399;-58
2021/08/03 04:01:32;;;;;;;1.93;1.80;;;16.20;99.90;;;;;;5034146;28;20929;-57
2021/08/03 04:04:03;;;;;;;2.43;1.80;;;16.20;99.90;;;;;;5033838;28;20391;-56
2021/08/03 04:06:29;;;;;;;3.00;2.20;;;16.20;99.90;;;;;;5034136;28;20441;-57
2021/08/03 04:08:55;;;;;;;3.83;1.83;;;16.20;99.90;;;;;;5033691;28;20411;-58
2021/08/03 04:11:20;;;;;;;2.67;1.87;;;16.20;99.90;;;;;;5034270;28;20169;-56
2021/08/03 04:13:51;;;;;;;4.50;2.07;;;16.20;99.90;;;;;;5031804;28;20203;-56
2021/08/03 04:16:17;;;;;;;2.90;1.60;;;16.00;99.90;;;;;;5033658;28;20170;-55
2021/08/03 04:18:43;;;;;;;2.90;2.27;;;15.90;99.90;;;;;;5029909;28;20443;-57
2021/08/03 04:21:08;;;;;;;2.17;1.97;;;15.90;99.90;;;;;;5013891;28;20406;-56
2021/08/03 04:23:34;;;;;;;5.37;2.23;;;16.00;99.90;;;;;;5013594;28;20647;-57
2021/08/03 04:26:00;;;;;;;2.80;2.30;;;15.90;99.90;;;;;;5013908;28;20225;-57
2021/08/03 04:28:26;;;;;;;5.13;2.17;;;15.90;99.90;;;;;;5013719;28;20173;-57
2021/08/03 04:30:52;;;;;;;2.57;2.10;;;16.00;99.90;;;;;;5013917;28;20414;-57
2021/08/03 04:33:18;;;;;;;3.50;1.90;;;16.00;99.90;;;;;;5020889;28;20790;-55
2021/08/03 04:35:43;;;;;;;2.70;1.87;;;16.00;99.90;;;;;;5032134;28;20194;-56
2021/08/03 04:38:09;;;;;;;2.90;1.97;;;16.10;99.90;;;;;;5033371;28;20263;-56
2021/08/03 04:40:35;;;;;;;3.30;1.90;;;16.10;99.90;;;;;;5033901;28;20170;-56
2021/08/03 04:43:00;;;;;;;3.13;2.53;;;16.20;99.90;;;;;;5033273;28;20917;-56
2021/08/03 04:45:26;;;;;;;3.60;3.30;;;16.20;99.90;;;;;;5033456;28;20224;-57
2021/08/03 04:47:53;;;;;;;5.67;2.17;;;16.30;99.90;;;;;;5033142;28;20264;-56
2021/08/03 04:50:24;;;;;;;2.43;1.70;;;16.40;99.90;;;;;;5034155;28;20181;-56
2021/08/03 04:52:50;;;;;;;2.50;2.00;;;16.40;99.90;;;;;;5033643;28;20390;-57
2021/08/03 04:55:16;;;;;;;2.80;2.23;;;16.50;99.90;;;;;;5033122;28;20433;-56
2021/08/03 04:57:42;;;;;;;2.23;1.63;;;16.50;99.90;;;;;;5031978;28;20819;-56
2021/08/03 05:00:10;;;;;;;2.20;1.70;;;16.60;99.90;;;;;;5033281;28;20170;-57
2021/08/03 05:02:37;;;;;;;4.10;1.60;;;16.60;99.90;;;;;;5033092;28;20656;-56
2021/08/03 05:05:04;;;;;;;2.30;2.10;;;16.70;99.90;;;;;;5032877;28;20424;-56
2021/08/03 05:07:30;;;;;;;2.10;1.90;;;16.70;99.90;;;;;;5033492;28;20406;-56
2021/08/03 05:10:09;;;;;;;2.33;1.80;;;16.80;99.90;;;;;;5035369;28;20799;-56
2021/08/03 05:12:36;;;;;;;2.20;2.00;;;16.90;99.90;;;;;;5037690;28;20673;-56
2021/08/03 05:15:02;;;;;;;2.33;2.13;;;17.00;99.90;;;;;;5037211;28;20865;-57
2021/08/03 05:17:32;;;;;;;2.67;2.30;;;17.10;99.90;;;;;;5036920;28;20516;-57
2021/08/03 05:19:58;;;;;;;5.83;2.23;;;17.10;99.90;;;;;;5036239;28;20189;-57
2021/08/03 05:22:25;;;;;;;2.10;1.80;;;17.10;99.90;;;;;;5036655;28;20402;-56
2021/08/03 05:24:51;;;;;;;4.97;2.13;;;17.20;99.90;;;;;;5036921;28;20480;-57
2021/08/03 05:27:18;;;;;;;2.50;2.03;;;17.10;99.90;;;;;;5036940;28;20414;-56
2021/08/03 05:29:43;;;;;;;2.03;1.80;;;17.10;99.90;;;;;;5037678;28;20417;-57
2021/08/03 05:32:09;;;;;;;3.27;2.50;;;17.10;99.90;;;;;;5036820;28;20405;-55
2021/08/03 05:34:34;;;;;;;2.20;1.87;;;17.10;99.90;;;;;;5035913;28;20210;-48
2021/08/03 05:37:04;;;;;;;4.53;2.17;;;17.10;99.90;;;;;;5036378;28;20706;-55
2021/08/03 05:39:30;;;;;;;1.80;1.70;;;17.20;99.90;;;;;;5036401;28;20161;-57
2021/08/03 05:41:57;;;;;;;5.83;2.23;;;17.20;99.90;;;;;;5036314;28;20539;-55
2021/08/03 05:44:22;;;;;;;2.43;2.20;;;17.10;99.90;;;;;;5036084;28;20429;-54
2021/08/03 05:46:48;;;;;;;3.23;2.17;;;17.20;99.90;;;;;;5035896;28;20408;-55
2021/08/03 05:49:13;;;;;;;2.23;1.80;;;17.20;99.90;;;;;;5035516;28;20166;-55
2021/08/03 05:51:39;;;;;;;2.90;1.90;;;17.20;99.90;;;;;;5036120;28;20672;-55
2021/08/03 05:54:05;;;;;;;1.70;1.60;;;17.10;99.90;;;;;;5036228;28;20646;-54
2021/08/03 05:56:31;;;;;;;2.60;2.30;;;17.10;99.90;;;;;;5034007;28;20195;-56
2021/08/03 05:58:57;;;;;;;2.30;1.70;;;17.30;99.90;;;;;;5035688;28;20728;-56
2021/08/03 06:01:22;;;;;;;2.70;2.20;;;17.40;99.90;;;;;;5035958;28;20406;-57
2021/08/03 06:03:48;;;;;;;1.93;1.70;;;17.50;99.90;;;;;;5024874;28;20179;-58
2021/08/03 06:06:15;;;;;;;2.30;1.80;;;17.70;99.90;;;;;;5016121;28;20279;-57
2021/08/03 06:08:42;;;;;;;1.87;1.60;;;17.70;99.90;;;;;;5016327;28;20169;-58
2021/08/03 06:11:16;;;;;;;2.03;1.83;;;17.80;99.90;;;;;;5016246;28;20479;-58
2021/08/03 06:13:47;;;;;;;2.77;2.13;;;18.00;99.90;;;;;;5015771;28;20384;-57
2021/08/03 06:16:19;;;;;;;2.97;1.70;;;18.10;99.90;;;;;;5032720;28;20426;-58
2021/08/03 06:18:46;;;;;;;1.67;1.57;;;18.20;99.90;;;;;;5035276;28;20557;-58
2021/08/03 06:21:13;;;;;;;1.80;1.60;;;18.20;99.90;;;;;;5035190;28;20406;-57
2021/08/03 06:23:41;;;;;;;2.20;1.97;;;18.20;99.90;;;;;;5035513;28;20406;-58
2021/08/03 06:26:08;;;;;;;3.97;1.80;;;18.10;99.90;;;;;;5035259;28;20450;-58
2021/08/03 06:28:35;;;;;;;2.50;1.70;;;18.30;99.90;;;;;;5035630;28;20492;-56
2021/08/03 06:31:02;;;;;;;1.70;1.60;;;18.40;99.90;;;;;;5035365;28;20980;-53
2021/08/03 06:33:28;;;;;;;3.03;2.13;;;18.60;99.90;;;;;;5035045;28;20480;-56
2021/08/03 06:35:54;;;;;;;2.73;1.67;;;18.70;99.90;;;;;;5035422;28;20434;-58
2021/08/03 06:38:20;;;;;;;4.70;1.67;;;18.70;99.90;;;;;;5035504;28;20285;-56
2021/08/03 06:41:07;;;;;;;3.63;1.57;;;18.80;99.90;;;;;;5034939;28;20175;-55
2021/08/03 06:43:35;;;;;;;2.87;1.90;;;18.80;99.90;;;;;;5035305;28;20850;-57
2021/08/03 06:46:06;;;;;;;2.30;2.00;;;19.10;99.90;;;;;;5034924;28;20483;-58
2021/08/03 06:48:43;;;;;;;5.20;2.00;;;19.20;99.90;;;;;;5034621;28;20839;-58
2021/08/03 06:51:11;;;;;;;2.97;1.77;;;19.30;99.90;;;;;;5035223;28;20401;-57
2021/08/03 06:53:39;;;;;;;2.43;2.10;;;19.30;99.90;;;;;;5035176;28;20402;-57
2021/08/03 06:56:06;;;;;;;1.50;1.40;;;19.60;99.90;;;;;;5034120;28;20484;-55
2021/08/03 06:58:51;;;;;;;7.50;2.10;;;19.70;99.90;;;;;;5035298;28;20458;-55
2021/08/03 07:01:31;;;;;;;3.10;1.70;;;19.80;99.90;;;;;;5035218;28;20395;-56
2021/08/03 07:04:02;;;;;;;2.80;1.50;;;19.90;99.90;;;;;;5034466;28;20413;-57
2021/08/03 07:06:31;;;;;;;3.17;1.23;;;19.90;99.90;;;;;;5034961;28;20424;-56
2021/08/03 07:08:59;;;;;;;1.77;1.67;;;20.10;99.90;;;;;;5035042;28;20406;-56
2021/08/03 07:11:28;;;;;;;2.60;1.60;;;20.00;99.90;;;;;;5036105;28;20974;-56
2021/08/03 07:13:56;;;;;;;4.43;1.80;;;20.20;99.90;;;;;;5034743;28;20414;-53
2021/08/03 07:16:22;;;;;;;6.30;2.00;;;20.20;99.90;;;;;;5034891;28;20429;-54
2021/08/03 07:18:49;;;;;;;1.97;1.60;;;20.40;99.90;;;;;;5034197;28;20450;-54
2021/08/03 07:21:16;;;;;;;3.07;1.73;;;20.60;99.90;;;;;;5034732;28;20413;-54
2021/08/03 07:23:43;;;;;;;2.27;1.80;;;20.90;99.90;;;;;;5034670;28;20410;-56
2021/08/03 07:26:08;;;;;;;2.30;1.70;;;21.30;99.90;;;;;;5034587;28;20996;-56
2021/08/03 07:28:34;;;;;;;1.63;1.50;;;21.40;99.90;;;;;;5034496;28;20406;-57
2021/08/03 07:31:00;;;;;;;2.20;1.30;;;21.40;99.90;;;;;;5034681;28;20176;-53
2021/08/03 07:33:26;;;;;;;1.67;1.57;;;21.30;99.90;;;;;;5033261;28;20429;-56
2021/08/03 07:35:52;;;;;;;2.50;1.80;;;21.00;99.90;;;;;;5034186;28;20560;-56
2021/08/03 07:38:17;;;;;;;1.50;1.33;;;21.20;99.90;;;;;;5034242;28;20195;-54
2021/08/03 07:40:43;;;;;;;1.90;1.60;;;21.10;99.90;;;;;;5034516;28;20225;-55
2021/08/03 07:43:09;;;;;;;2.30;1.30;;;21.30;99.90;;;;;;5034526;28;20179;-56
2021/08/03 07:45:36;;;;;;;1.87;1.40;;;21.30;99.90;;;;;;5034050;28;20564;-57
2021/08/03 07:48:02;;;;;;;1.83;1.63;;;21.20;99.90;;;;;;5034419;28;20172;-57
2021/08/03 07:50:28;;;;;;;3.00;1.63;;;21.10;99.90;;;;;;5033930;28;20410;-53
2021/08/03 07:52:54;;;;;;;7.03;2.63;;;21.40;99.90;;;;;;5034391;28;20179;-57
2021/08/03 07:55:21;;;;;;;3.10;2.03;;;21.40;99.90;;;;;;5034133;28;20190;-57
2021/08/03 07:57:46;;;;;;;2.60;1.63;;;21.50;99.90;;;;;;5023195;28;20486;-57
2021/08/03 08:00:14;;;;;;;3.17;1.57;;;21.60;99.90;;;;;;5011676;28;20407;-57
2021/08/03 08:02:39;;;;;;;1.93;1.30;;;21.70;99.90;;;;;;5017473;28;20421;-55
2021/08/03 08:05:05;;;;;;;2.80;1.63;;;21.70;99.90;;;;;;5033308;28;20798;-53
2021/08/03 08:07:31;;;;;;;1.83;1.53;;;21.60;99.90;;;;;;5033998;28;20228;-56
2021/08/03 08:09:56;;;;;;;1.60;1.50;;;21.70;99.90;;;;;;5033650;28;20175;-53
2021/08/03 08:12:22;;;;;;;2.10;1.50;;;21.80;99.90;;;;;;5034169;28;20255;-53
2021/08/03 08:14:47;;;;;;;1.33;1.23;;;22.10;99.90;;;;;;5033627;28;20257;-56
2021/08/03 08:17:13;;;;;;;1.90;1.17;;;22.20;99.90;;;;;;5033351;28;20238;-57
2021/08/03 08:19:40;;;;;;;3.07;1.33;;;22.20;99.90;;;;;;5033014;28;20167;-56
2021/08/03 08:22:05;;;;;;;2.40;1.30;;;22.50;99.90;;;;;;5033454;28;20190;-57
2021/08/03 08:24:31;;;;;;;2.33;1.57;;;22.50;99.90;;;;;;5022910;28;20448;-55
2021/08/03 08:26:56;;;;;;;1.90;1.57;;;22.30;99.90;;;;;;5013498;28;20172;-57
2021/08/03 08:29:22;;;;;;;1.50;1.40;;;22.40;99.90;;;;;;5013561;28;20194;-55
2021/08/03 08:31:48;;;;;;;1.97;1.40;;;22.30;99.90;;;;;;5013925;28;20556;-56
2021/08/03 08:34:14;;;;;;;1.70;1.50;;;22.30;99.90;;;;;;5028995;28;20231;-55
2021/08/03 08:36:40;;;;;;;2.20;1.30;;;22.30;99.90;;;;;;5033697;28;20221;-55
2021/08/03 08:39:06;;;;;;;2.80;1.40;;;22.20;99.90;;;;;;5033307;28;20450;-55
2021/08/03 08:41:35;;;;;;;1.83;1.50;;;22.30;99.90;;;;;;5033201;28;20698;-54
2021/08/03 08:44:02;;;;;;;3.17;1.47;;;22.50;99.90;;;;;;5033254;28;20422;-55
2021/08/03 08:46:35;;;;;;;5.03;1.60;;;22.80;99.90;;;;;;5033367;28;20406;-51
2021/08/03 08:49:02;;;;;;;2.50;1.63;;;22.90;99.90;;;;;;5033014;28;20394;-51
2021/08/03 08:51:27;;;;;;;1.30;0.93;;;22.80;99.90;;;;;;5033272;28;20925;-48
2021/08/03 08:53:53;;;;;;;2.77;1.20;;;22.80;99.90;;;;;;5033662;28;20414;-53
2021/08/03 08:56:19;;;;;;;1.87;1.30;;;23.10;99.90;;;;;;5024809;28;20258;-56
2021/08/03 08:58:44;;;;;;;1.50;1.40;;;23.10;99.90;;;;;;5013112;28;20200;-56
2021/08/03 09:01:11;;;;;;;2.27;1.40;;;23.20;99.90;;;;;;5013667;28;20172;-56
2021/08/03 09:03:36;;;;;;;2.23;1.90;;;23.00;99.90;;;;;;5023730;28;20262;-57
2021/08/03 09:06:06;;;;;;;2.10;1.70;;;23.20;99.90;;;;;;5032945;28;20458;-53
2021/08/03 09:08:49;;;;;;;3.53;1.50;;;23.10;99.90;;;;;;5033165;28;20655;-56
2021/08/03 09:11:20;;;;;;;1.87;1.50;;;23.00;99.90;;;;;;5033211;28;20383;-55
2021/08/03 09:14:03;;;;;;;1.93;1.40;;;22.60;99.90;;;;;;5033384;28;20493;-55
2021/08/03 09:16:43;;;;;;;2.27;1.30;;;22.70;99.90;;;;;;5033696;28;20425;-48
2021/08/03 09:19:39;;;;;;;3.77;1.77;;;22.60;99.90;;;;;;5032795;28;20445;-49
2021/08/03 09:22:11;;;;;;;6.20;1.90;;;22.30;99.90;;;;;;5032930;28;20425;-49
2021/08/03 09:24:36;;;;;;;2.13;1.73;;;22.20;99.90;;;;;;5032878;28;20485;-56
2021/08/03 09:27:02;;;;;;;3.77;1.47;;;21.80;99.90;;;;;;5033424;28;20439;-56
2021/08/03 09:29:41;;;;;;;3.07;1.63;;;21.70;99.90;;;;;;5033225;28;20196;-56
2021/08/03 09:32:06;;;;;;;2.10;1.70;;;21.70;99.90;;;;;;5033157;28;20163;-54
2021/08/03 09:34:32;;;;;;;2.20;1.83;;;21.50;99.90;;;;;;5031319;28;20445;-55
2021/08/03 09:36:59;;;;;;;2.70;2.40;;;20.90;99.90;;;;;;5033151;28;20171;-56
2021/08/03 09:39:40;;;;;;;3.23;2.37;;;20.10;99.90;;;;;;5033074;28;20178;-55
2021/08/03 09:42:12;;;;;;;3.90;2.50;;;19.70;99.90;;;;;;5032919;28;20935;-54
2021/08/03 09:44:52;;;;;;;2.70;2.10;;;19.00;99.90;;;;;;5032912;28;20910;-53
2021/08/03 09:47:19;;;;;;;1.83;1.73;;;19.00;99.90;;;;;;5032844;28;20397;-53
2021/08/03 09:49:51;;;;;;;3.63;1.43;;;19.20;99.90;;;;;;5032211;28;20406;-49
2021/08/03 09:52:18;;;;;;;1.97;1.00;;;19.50;99.90;;;;;;5032893;28;20395;-53
2021/08/03 09:54:44;;;;;;;2.23;1.10;;;19.30;99.90;;;;;;5033015;28;20785;-51
2021/08/03 09:57:23;;;;;;;2.60;1.30;;;19.20;99.90;;;;;;5036071;28;20453;-49
2021/08/03 09:59:54;;;;;;;1.93;1.50;;;19.20;99.90;;;;;;5036555;28;20807;-51
2021/08/03 10:02:25;;;;;;;1.67;1.50;;;19.10;99.90;;;;;;5036780;28;20399;-55
2021/08/03 10:04:53;;;;;;;1.93;1.30;;;19.00;99.90;;;;;;5036332;28;20432;-50
2021/08/03 10:07:19;;;;;;;2.40;1.40;;;19.00;99.90;;;;;;5038399;28;20775;-55
2021/08/03 10:09:48;;;;;;;1.30;1.20;;;18.80;99.90;;;;;;5060178;22;20805;-58
2021/08/03 10:12:13;;;;;;;3.47;2.30;;;18.80;99.90;;;;;;5006621;28;20419;-58
2021/08/03 10:14:39;;;;;;;1.60;1.50;;;19.00;99.90;;;;;;5015880;28;20409;-58
2021/08/03 10:17:07;;;;;;;2.17;1.80;;;19.30;99.90;;;;;;5015836;28;20171;-57
2021/08/03 10:19:36;;;;;;;1.83;1.60;;;19.50;99.90;;;;;;5015695;28;20490;-58
2021/08/03 10:22:20;;;;;;;1.57;1.40;;;19.30;99.90;;;;;;5016135;28;20472;-56
2021/08/03 10:25:02;;;;;;;2.50;1.50;;;19.30;99.90;;;;;;5015649;28;20429;-57
2021/08/03 10:27:48;;;;;;;1.67;1.47;;;19.50;99.90;;;;;;5014485;28;20440;-58
2021/08/03 10:30:29;;;;;;;5.73;1.70;;;19.30;99.90;;;;;;4976671;28;20463;-58
2021/08/03 10:32:59;;;;;;;1.67;1.43;;;19.50;99.90;;;;;;4977034;28;20407;-58
2021/08/03 10:35:49;;;;;;;1.70;1.37;;;19.80;99.90;;;;;;4976716;28;20910;-57
2021/08/03 10:38:19;;;;;;;1.97;1.77;;;19.80;99.90;;;;;;4976558;28;20468;-58
2021/08/03 10:40:45;;;;;;;2.30;1.63;;;19.80;99.90;;;;;;4987536;28;20802;-58
2021/08/03 10:43:22;;;;;;;2.30;1.50;;;20.10;99.90;;;;;;4996740;28;20411;-58
2021/08/03 10:46:09;;;;;;;2.23;2.03;;;20.20;99.90;;;;;;4995841;28;20168;-58
2021/08/03 10:48:38;;;;;;;2.57;1.40;;;20.40;99.90;;;;;;4995778;28;20450;-56
2021/08/03 10:51:13;;;;;;;2.20;1.60;;;20.70;99.90;;;;;;4995741;28;20431;-57
2021/08/03 10:53:59;;;;;;;2.37;1.83;;;20.70;99.90;;;;;;4996028;28;20427;-57
2021/08/03 10:56:25;;;;;;;1.63;1.43;;;20.50;99.90;;;;;;4995570;28;20932;-58
2021/08/03 10:59:11;;;;;;;1.67;1.57;;;20.40;99.90;;;;;;4995596;28;20983;-58
2021/08/03 11:01:54;;;;;;;2.00;1.63;;;20.60;99.90;;;;;;4994039;28;20815;-56
2021/08/03 11:04:42;;;;;;;1.70;1.60;;;20.60;99.90;;;;;;4995584;28;20484;-58
2021/08/03 11:07:26;;;;;;;1.63;1.53;;;20.30;99.90;;;;;;4994379;28;20396;-55
2021/08/03 11:09:56;;;;;;;3.73;1.50;;;20.60;99.90;;;;;;4994829;28;20490;-57
2021/08/03 11:12:39;;;;;;;2.80;1.60;;;20.80;99.90;;;;;;4995519;28;20436;-57
2021/08/03 11:15:23;;;;;;;1.53;1.30;;;20.80;99.90;;;;;;4994066;28;20437;-58
2021/08/03 11:17:52;;;;;;;1.60;1.50;;;21.30;99.90;;;;;;4995179;28;20455;-58
2021/08/03 11:20:36;;;;;;;1.73;1.60;;;20.90;99.90;;;;;;4995067;28;20428;-58
2021/08/03 11:23:07;;;;;;;1.63;1.53;;;21.00;99.90;;;;;;4995295;28;20411;-58
2021/08/03 11:25:33;;;;;;;1.40;1.30;;;20.80;99.90;;;;;;4994817;28;20399;-58
2021/08/03 11:28:09;;;;;;;1.73;1.63;;;21.10;99.90;;;;;;4995165;28;20395;-58
2021/08/03 11:30:34;;;;;;;2.10;1.60;;;21.30;99.90;;;;;;4994900;28;20879;-58
2021/08/03 11:33:00;;;;;;;2.20;2.00;;;21.90;99.90;;;;;;4995085;28;20476;-58
2021/08/03 11:35:27;;;;;;;3.60;1.63;;;22.00;99.90;;;;;;4994889;28;20168;-58
2021/08/03 11:37:53;;;;;;;4.37;1.70;;;22.00;99.90;;;;;;4994892;28;20196;-58
2021/08/03 11:40:19;;;;;;;2.33;1.60;;;21.90;99.90;;;;;;4994497;28;20439;-59
2021/08/03 11:42:46;;;;;;;3.43;1.87;;;22.40;99.90;;;;;;4993584;28;20168;-59
2021/08/03 11:45:14;;;;;;;1.80;1.40;;;22.70;99.90;;;;;;4994780;28;20165;-58
2021/08/03 11:47:47;;;;;;;1.40;1.30;;;23.50;99.90;;;;;;4994723;28;20462;-59
2021/08/03 11:50:15;;;;;;;1.40;1.30;;;23.60;99.90;;;;;;4994715;28;20447;-59
2021/08/03 11:52:41;;;;;;;2.07;1.57;;;23.70;99.90;;;;;;4994779;28;20491;-58
2021/08/03 11:55:11;;;;;;;2.40;1.53;;;23.70;99.90;;;;;;4994818;28;20451;-59
2021/08/03 11:57:37;;;;;;;2.03;1.53;;;24.30;99.90;;;;;;4994058;28;20192;-59
2021/08/03 12:00:14;;;;;;;1.73;1.50;;;24.10;99.90;;;;;;4994291;28;20432;-58
2021/08/03 12:02:41;;;;;;;1.93;1.63;;;23.40;99.90;;;;;;4994400;28;20510;-59
2021/08/03 12:05:15;;;;;;;1.73;1.43;;;23.10;99.90;;;;;;4994645;28;20413;-58
2021/08/03 12:07:52;;;;;;;2.37;1.67;;;23.40;99.90;;;;;;4994650;28;20399;-58
2021/08/03 12:10:20;;;;;;;2.03;1.60;;;22.90;99.90;;;;;;4994311;28;20498;-58
2021/08/03 12:12:47;;;;;;;1.80;1.50;;;22.60;99.90;;;;;;4993909;28;20846;-59
2021/08/03 12:15:15;;;;;;;2.77;1.60;;;22.50;99.90;;;;;;4995201;28;20506;-59
2021/08/03 12:17:42;;;;;;;1.50;1.40;;;22.30;99.90;;;;;;4993964;28;20973;-58
2021/08/03 12:20:30;;;;;;;1.63;1.47;;;22.20;99.90;;;;;;4995880;28;20455;-57
2021/08/03 12:23:11;;;;;;;1.97;1.33;;;22.40;99.90;;;;;;4994668;28;20443;-57
2021/08/03 12:25:41;;;;;;;2.20;1.40;;;21.80;99.90;;;;;;4994480;28;20751;-57
2021/08/03 12:28:06;;;;;;;1.73;1.60;;;21.80;99.90;;;;;;4993618;28;20438;-59
2021/08/03 12:30:38;;;;;;;1.73;1.20;;;22.00;99.90;;;;;;4993887;28;20420;-56
2021/08/03 12:33:06;;;;;;;2.10;1.17;;;22.30;99.90;;;;;;4993998;28;20660;-59
2021/08/03 12:35:34;;;;;;;2.23;1.50;;;22.40;99.90;;;;;;4993911;28;20415;-58
2021/08/03 12:38:14;;;;;;;1.57;1.23;;;22.20;99.90;;;;;;4994031;28;20447;-58
2021/08/03 12:40:40;;;;;;;1.80;1.50;;;22.00;99.90;;;;;;4993880;28;20427;-56
2021/08/03 12:43:05;;;;;;;1.63;1.53;;;22.00;99.90;;;;;;4992932;28;20420;-57
2021/08/03 12:45:31;;;;;;;1.27;1.13;;;22.40;99.90;;;;;;4993815;28;20204;-59
2021/08/03 12:48:02;;;;;;;1.13;1.03;;;22.70;99.90;;;;;;4993971;28;20184;-59
2021/08/03 12:50:28;;;;;;;1.30;1.20;;;23.40;99.90;;;;;;4994095;28;20660;-59
2021/08/03 12:52:57;;;;;;;1.70;1.33;;;24.50;99.90;;;;;;4994028;28;20916;-58
2021/08/03 12:55:30;;;;;;;1.40;1.30;;;24.90;99.90;;;;;;4993755;28;20401;-59
2021/08/03 12:57:58;;;;;;;2.07;0.83;;;25.70;99.90;;;;;;4993283;28;20936;-58
2021/08/03 13:00:28;;;;;;;1.23;0.90;;;26.50;99.40;;;;;;4993675;28;20467;-59